Time;durP1;ratioP1;P1;durP2;ratioP2;P2;SDS_P1;SDS_P2;PMS_P1;PMS_P2;Temp;Humidity;BMP_temperature;BMP_pressure;BME280_temperature;BME280_humidity;BME280_pressure;Samples;Min_cycle;Max_cycle;Signal;HPM_P1;HPM_P2
2023/04/02 00:00:35;;;;;;;7.10;6.50;;;;;;;9.21;100.00;100965.75;5301855;28;20405;-69
2023/04/02 00:03:09;;;;;;;7.50;6.80;;;;;;;9.25;100.00;100963.72;5300682;28;20120;-70
2023/04/02 00:05:49;;;;;;;7.60;6.78;;;;;;;9.27;100.00;100962.63;5303054;28;20027;-70
2023/04/02 00:08:39;;;;;;;7.65;6.95;;;;;;;9.50;100.00;100968.69;5300636;28;20991;-70
2023/04/02 00:11:37;;;;;;;7.55;6.85;;;;;;;9.47;100.00;100976.81;5298053;28;20122;-70
2023/04/02 00:14:20;;;;;;;6.90;6.30;;;;;;;9.32;100.00;100980.59;5298952;28;20022;-70
2023/04/02 00:16:52;;;;;;;;;;;;;;;9.79;100.00;100981.28;5299768;28;20024;-70
2023/04/02 00:19:48;;;;;;;6.53;5.93;;;;;;;9.56;100.00;100990.94;5298343;28;20348;-69
2023/04/02 00:22:25;;;;;;;7.03;6.43;;;;;;;9.30;100.00;100987.72;5297299;28;20596;-70
2023/04/02 00:25:00;;;;;;;9.13;7.63;;;;;;;9.22;100.00;100995.34;5296208;28;20446;-70
2023/04/02 00:27:31;;;;;;;7.55;6.95;;;;;;;9.07;100.00;101004.34;5302402;28;20024;-70
2023/04/02 00:30:03;;;;;;;9.30;8.38;;;;;;;9.10;100.00;101002.34;5303293;28;20019;-70
2023/04/02 00:32:35;;;;;;;8.32;7.63;;;;;;;9.02;100.00;101009.94;5300758;28;20119;-70
2023/04/02 00:35:21;;;;;;;8.77;8.05;;;;;;;9.17;100.00;101014.00;5299474;28;20377;-70
2023/04/02 00:37:53;;;;;;;7.78;7.18;;;;;;;9.00;100.00;101015.25;5302123;28;20286;-70
2023/04/02 00:40:28;;;;;;;8.30;7.60;;;;;;;9.08;100.00;101032.13;5299919;28;20028;-70
2023/04/02 00:43:03;;;;;;;7.65;7.05;;;;;;;8.90;100.00;101019.53;5299499;28;20077;-70
2023/04/02 00:45:36;;;;;;;8.20;7.40;;;;;;;8.87;100.00;101013.69;5301494;28;20023;-70
2023/04/02 00:48:30;;;;;;;8.32;7.53;;;;;;;9.20;100.00;101033.81;5302285;28;20056;-70
2023/04/02 00:51:15;;;;;;;7.72;7.00;;;;;;;9.14;100.00;101036.91;5296771;28;20493;-70
2023/04/02 00:53:47;;;;;;;8.45;7.65;;;;;;;8.85;100.00;101039.91;5304353;28;20028;-70
2023/04/02 00:56:27;;;;;;;7.50;6.80;;;;;;;8.95;100.00;101045.31;5303781;28;20024;-70
2023/04/02 00:58:59;;;;;;;8.45;7.65;;;;;;;8.81;100.00;101058.56;5299654;28;20485;-69
2023/04/02 01:01:36;;;;;;;8.93;8.13;;;;;;;8.96;100.00;101057.41;5301072;28;20031;-69
2023/04/02 01:04:26;;;;;;;8.20;7.40;;;;;;;9.11;100.00;101064.09;5298433;28;20034;-69
2023/04/02 01:06:58;;;;;;;8.48;7.68;;;;;;;8.89;100.00;101067.47;5298644;28;20416;-69
2023/04/02 01:09:50;;;;;;;8.37;7.63;;;;;;;9.09;100.00;101078.22;5298702;28;20032;-69
2023/04/02 01:12:33;;;;;;;8.20;7.50;;;;;;;9.09;100.00;101075.59;5303985;28;20031;-69
2023/04/02 01:15:20;;;;;;;8.30;7.45;;;;;;;8.96;100.00;101067.88;5301636;28;20031;-69
2023/04/02 01:18:16;;;;;;;8.35;7.55;;;;;;;9.05;100.00;101075.00;5306209;28;20043;-69
2023/04/02 01:21:20;;;;;;;8.57;7.65;;;;;;;9.17;100.00;101084.56;5307132;28;20019;-69
2023/04/02 01:23:56;;;;;;;8.00;7.30;;;;;;;8.98;100.00;101084.28;5304739;28;20019;-69
2023/04/02 01:26:51;;;;;;;7.97;7.22;;;;;;;9.04;100.00;101094.25;5296299;28;20054;-69
2023/04/02 01:29:26;;;;;;;8.80;8.00;;;;;;;8.83;100.00;101090.63;5301169;28;20522;-69
2023/04/02 01:32:03;;;;;;;8.40;7.60;;;;;;;8.88;100.00;101089.34;5297294;28;20032;-69
2023/04/02 01:34:35;;;;;;;9.05;8.15;;;;;;;8.79;100.00;101097.88;5306519;28;20028;-69
2023/04/02 01:37:15;;;;;;;8.82;8.00;;;;;;;8.96;100.00;101105.28;5301538;28;20020;-69
2023/04/02 01:40:05;;;;;;;8.65;7.85;;;;;;;8.90;100.00;101105.75;5302224;28;20051;-69
2023/04/02 01:42:55;;;;;;;9.52;7.78;;;;;;;8.74;100.00;101118.25;5300318;28;20035;-69
2023/04/02 01:45:28;;;;;;;8.45;7.45;;;;;;;8.62;100.00;101129.59;5304510;28;20520;-69
2023/04/02 01:48:04;;;;;;;9.40;8.50;;;;;;;8.67;100.00;101127.47;5284365;22;20049;-76
2023/04/02 01:50:38;;;;;;;9.25;8.45;;;;;;;8.60;100.00;101132.31;5233555;28;20478;-76
2023/04/02 01:53:15;;;;;;;9.75;8.55;;;;;;;8.67;100.00;101137.91;5256443;28;20150;-76
2023/04/02 01:55:52;;;;;;;8.90;8.00;;;;;;;8.56;100.00;101135.22;5249895;28;20025;-76
2023/04/02 01:58:28;;;;;;;9.65;8.65;;;;;;;8.56;100.00;101145.69;5224519;28;20029;-76
2023/04/02 02:01:35;;;;;;;9.13;7.38;;;;;;;8.81;100.00;101150.81;5255661;22;20516;-70
2023/04/02 02:04:12;;;;;;;9.00;8.18;;;;;;;8.58;100.00;101155.09;5277588;28;20023;-70
2023/04/02 02:06:44;;;;;;;8.75;7.82;;;;;;;8.49;100.00;101156.59;5289462;28;20017;-70
2023/04/02 02:09:21;;;;;;;10.13;7.53;;;;;;;8.53;100.00;101165.03;5285673;28;20048;-70
2023/04/02 02:11:55;;;;;;;8.55;7.75;;;;;;;8.44;100.00;101163.88;5270725;28;20059;-70
2023/04/02 02:14:28;;;;;;;8.55;7.65;;;;;;;8.43;100.00;101162.22;5281649;28;20024;-70
2023/04/02 02:17:01;;;;;;;6.97;6.28;;;;;;;8.43;100.00;101172.66;5280523;28;20064;-70
2023/04/02 02:19:44;;;;;;;5.45;4.95;;;;;;;8.40;100.00;101179.88;5279288;28;20081;-70
2023/04/02 02:22:28;;;;;;;6.90;5.25;;;;;;;8.28;100.00;101186.75;5279314;28;20106;-70
2023/04/02 02:25:04;;;;;;;5.97;5.15;;;;;;;8.30;100.00;101192.72;5270607;28;20029;-70
2023/04/02 02:27:53;;;;;;;5.60;5.00;;;;;;;8.21;100.00;101202.00;5280924;28;20517;-70
2023/04/02 02:30:33;;;;;;;5.32;4.82;;;;;;;8.30;100.00;101197.94;5277027;28;20028;-71
2023/04/02 02:33:24;;;;;;;6.40;4.93;;;;;;;8.39;100.00;101212.16;5283511;28;21259;-70
2023/04/02 02:36:00;;;;;;;4.45;4.05;;;;;;;8.19;100.00;101205.69;5281562;28;20440;-71
2023/04/02 02:38:50;;;;;;;5.00;4.50;;;;;;;8.36;100.00;101218.38;5274955;28;20039;-70
2023/04/02 02:41:34;;;;;;;4.50;4.10;;;;;;;8.20;100.00;101210.78;5281169;28;20388;-71
2023/04/02 02:44:08;;;;;;;;;;;;;;;8.71;100.00;101222.94;5282987;28;20025;-70
2023/04/02 02:46:46;;;;;;;5.97;4.43;;;;;;;8.19;100.00;101227.41;5274745;28;19923;-70
2023/04/02 02:49:24;;;;;;;4.93;3.95;;;;;;;8.19;100.00;101239.63;5288230;28;20043;-70
2023/04/02 02:52:24;;;;;;;4.00;3.60;;;;;;;8.17;100.00;101231.88;5276646;28;20064;-70
2023/04/02 02:55:14;;;;;;;4.38;3.80;;;;;;;8.24;100.00;101246.19;5273652;28;20071;-70
2023/04/02 02:57:52;;;;;;;4.80;4.20;;;;;;;8.07;100.00;101254.34;5283159;28;20027;-70
2023/04/02 03:00:24;;;;;;;4.40;3.97;;;;;;;8.07;100.00;101254.34;5285387;28;20489;-70
2023/04/02 03:02:56;;;;;;;5.55;4.40;;;;;;;7.98;100.00;101255.78;5260619;28;20028;-70
2023/04/02 03:05:28;;;;;;;5.78;4.65;;;;;;;8.02;100.00;101264.22;5253615;28;20032;-70
2023/04/02 03:08:03;;;;;;;5.03;4.53;;;;;;;8.07;100.00;101266.53;5256617;28;20029;-70
2023/04/02 03:10:37;;;;;;;5.53;5.03;;;;;;;8.10;100.00;101276.75;5255406;28;20048;-70
2023/04/02 03:13:18;;;;;;;6.03;5.43;;;;;;;8.18;100.00;101277.06;5258232;28;20044;-70
2023/04/02 03:15:52;;;;;;;6.88;6.18;;;;;;;8.20;100.00;101285.66;5260989;28;20048;-71
2023/04/02 03:18:39;;;;;;;7.88;6.68;;;;;;;8.22;100.00;101283.75;5260416;28;20143;-70
2023/04/02 03:21:31;;;;;;;7.78;7.07;;;;;;;8.15;100.00;101295.56;5255413;28;20385;-71
2023/04/02 03:24:28;;;;;;;7.70;6.90;;;;;;;8.28;100.00;101299.00;5259690;28;20020;-71
2023/04/02 03:27:16;;;;;;;7.53;6.50;;;;;;;8.16;100.00;101318.94;5245365;28;20060;-70
2023/04/02 03:30:14;;;;;;;7.63;6.72;;;;;;;8.11;100.00;101312.38;5257729;28;20841;-70
2023/04/02 03:32:47;;;;;;;7.47;6.78;;;;;;;7.93;100.00;101323.09;5244567;28;20051;-70
2023/04/02 03:35:23;;;;;;;;;;;;;;;8.56;100.00;101325.88;5256838;28;20025;-71
2023/04/02 03:38:00;;;;;;;7.80;7.00;;;;;;;8.15;100.00;101329.50;5255360;28;19916;-70
2023/04/02 03:40:52;;;;;;;7.65;6.88;;;;;;;8.19;100.00;101338.78;5256511;28;20223;-71
2023/04/02 03:43:27;;;;;;;8.25;7.50;;;;;;;7.89;100.00;101346.88;5256486;28;20265;-70
2023/04/02 03:46:10;;;;;;;7.82;7.03;;;;;;;7.90;100.00;101354.59;5258522;28;20032;-70
2023/04/02 03:48:50;;;;;;;7.63;6.93;;;;;;;7.93;100.00;101361.38;5240920;28;20413;-71
2023/04/02 03:51:51;;;;;;;7.72;6.75;;;;;;;7.86;100.00;101376.59;5236795;28;20664;-71
2023/04/02 03:54:22;;;;;;;8.07;6.82;;;;;;;7.72;100.00;101377.47;5256067;28;20086;-71
2023/04/02 03:56:53;;;;;;;7.00;6.30;;;;;;;7.73;100.00;101383.56;5254985;28;20036;-70
2023/04/02 03:59:41;;;;;;;8.80;6.40;;;;;;;7.78;100.00;101384.09;5258501;28;20052;-70
2023/04/02 04:02:24;;;;;;;6.93;6.18;;;;;;;7.76;100.00;101393.78;5253232;28;20495;-70
2023/04/02 04:04:56;;;;;;;6.55;5.68;;;;;;;7.55;100.00;101396.81;5255977;28;20140;-71
2023/04/02 04:07:40;;;;;;;6.85;6.07;;;;;;;7.71;100.00;101395.84;5256962;28;20149;-70
2023/04/02 04:10:23;;;;;;;7.25;6.22;;;;;;;7.64;100.00;101391.94;5258678;28;20024;-70
2023/04/02 04:13:01;;;;;;;7.47;6.68;;;;;;;7.50;100.00;101409.31;5255554;28;20037;-71
2023/04/02 04:15:40;;;;;;;7.88;6.65;;;;;;;7.61;100.00;101413.00;5237279;28;20029;-71
2023/04/02 04:18:33;;;;;;;8.25;7.15;;;;;;;7.61;100.00;101418.22;5263163;28;20050;-70
2023/04/02 04:21:14;;;;;;;7.65;6.90;;;;;;;7.63;100.00;101424.19;5259277;28;20036;-70
2023/04/02 04:23:49;;;;;;;8.85;6.72;;;;;;;7.60;100.00;101433.03;5257495;28;20029;-71
2023/04/02 04:26:38;;;;;;;8.30;7.50;;;;;;;7.45;100.00;101429.59;5256428;28;20028;-70
2023/04/02 04:29:39;;;;;;;9.65;7.90;;;;;;;7.67;100.00;101436.94;5254779;28;20188;-70
2023/04/02 04:32:13;;;;;;;8.02;7.13;;;;;;;7.61;100.00;101447.72;5255561;28;20021;-70
2023/04/02 04:34:52;;;;;;;8.68;7.53;;;;;;;7.51;100.00;101470.97;5253981;28;20039;-71
2023/04/02 04:37:32;;;;;;;9.48;7.35;;;;;;;7.55;100.00;101461.19;5257914;28;20060;-70
2023/04/02 04:40:10;;;;;;;8.18;7.28;;;;;;;7.57;100.00;101475.78;5259311;28;20025;-70
2023/04/02 04:42:44;;;;;;;8.15;6.95;;;;;;;7.44;100.00;101481.84;5256411;28;20037;-70
2023/04/02 04:45:33;;;;;;;7.63;6.85;;;;;;;7.62;100.00;101491.16;5261645;28;20032;-70
2023/04/02 04:48:12;;;;;;;8.48;6.20;;;;;;;7.60;100.00;101487.78;5259035;28;20204;-70
2023/04/02 04:51:00;;;;;;;7.60;6.07;;;;;;;7.49;100.00;101498.88;5265433;28;20090;-71
2023/04/02 04:53:31;;;;;;;7.32;6.45;;;;;;;7.29;100.00;101507.91;5262150;28;20036;-71
2023/04/02 04:56:04;;;;;;;6.80;5.30;;;;;;;7.17;100.00;101487.81;5243925;28;20398;-71
2023/04/02 04:58:44;;;;;;;6.20;5.60;;;;;;;7.42;100.00;101513.22;5263045;28;20471;-71
2023/04/02 05:01:28;;;;;;;5.88;5.00;;;;;;;7.43;100.00;101519.28;5266694;28;20541;-70
2023/04/02 05:04:08;;;;;;;6.40;5.25;;;;;;;7.34;100.00;101519.84;5278595;28;20032;-71
2023/04/02 05:06:44;;;;;;;6.75;5.43;;;;;;;7.33;100.00;101537.25;5280028;28;20886;-71
2023/04/02 05:09:40;;;;;;;6.85;5.40;;;;;;;7.46;100.00;101534.72;5282245;28;20071;-71
2023/04/02 05:12:17;;;;;;;8.30;5.72;;;;;;;7.19;100.00;101538.06;5276186;28;20104;-71
2023/04/02 05:14:53;;;;;;;6.97;5.47;;;;;;;7.17;100.00;101544.31;5282836;28;20585;-70
2023/04/02 05:17:34;;;;;;;5.80;5.20;;;;;;;7.27;100.00;101550.63;5282736;28;20412;-70
2023/04/02 05:20:19;;;;;;;6.50;5.85;;;;;;;7.10;100.00;101549.03;5280852;28;20029;-70
2023/04/02 05:23:09;;;;;;;7.95;5.63;;;;;;;7.33;100.00;101563.31;5281252;28;20092;-71
2023/04/02 05:26:18;;;;;;;6.28;5.38;;;;;;;7.29;100.00;101552.22;5286197;28;20385;-71
2023/04/02 05:28:49;;;;;;;6.82;4.68;;;;;;;7.00;100.00;101560.91;5282696;28;20035;-70
2023/04/02 05:31:43;;;;;;;8.23;5.60;;;;;;;7.29;100.00;101569.63;5284288;28;20437;-70
2023/04/02 05:34:21;;;;;;;;;;;;;;;7.69;100.00;101577.66;5285655;28;20305;-70
2023/04/02 05:36:54;;;;;;;6.05;4.80;;;;;;;7.12;100.00;101582.81;5283570;28;19997;-70
2023/04/02 05:39:26;;;;;;;;;;;;;;;7.70;100.00;101589.78;5276887;28;20107;-70
2023/04/02 05:42:03;;;;;;;5.78;4.50;;;;;;;7.14;100.00;101586.19;5283781;28;19912;-71
2023/04/02 05:44:40;;;;;;;4.90;4.30;;;;;;;7.13;100.00;101585.34;5279506;28;20056;-71
2023/04/02 05:47:23;;;;;;;5.53;4.65;;;;;;;7.23;100.00;101591.69;5281699;28;20401;-71
2023/04/02 05:50:00;;;;;;;6.30;5.07;;;;;;;7.11;100.00;101594.16;5276923;28;20043;-70
2023/04/02 05:52:36;;;;;;;5.93;4.40;;;;;;;7.15;100.00;101604.31;5282036;28;20032;-71
2023/04/02 05:55:11;;;;;;;7.47;5.07;;;;;;;7.19;100.00;101620.63;5282495;28;20093;-71
2023/04/02 05:57:48;;;;;;;7.28;5.85;;;;;;;7.19;100.00;101620.63;5271624;28;20033;-71
2023/04/02 06:00:41;;;;;;;7.10;5.45;;;;;;;7.12;100.00;101617.53;5275104;28;20393;-71
2023/04/02 06:03:25;;;;;;;8.48;6.03;;;;;;;7.18;100.00;101624.16;5275810;28;20476;-70
2023/04/02 06:06:02;;;;;;;7.65;5.57;;;;;;;7.19;100.00;101631.03;5276832;28;20029;-74
2023/04/02 06:08:41;;;;;;;7.13;6.07;;;;;;;7.19;100.00;101641.47;5283559;28;20028;-71
2023/04/02 06:11:21;;;;;;;6.93;5.93;;;;;;;7.23;100.00;101640.34;5274497;28;20112;-70
2023/04/02 06:13:52;;;;;;;11.73;7.05;;;;;;;7.07;100.00;101659.47;5280482;28;20032;-71
2023/04/02 06:16:27;;;;;;;7.30;6.57;;;;;;;7.24;100.00;101647.28;5274099;28;20043;-71
2023/04/02 06:18:58;;;;;;;7.90;6.95;;;;;;;7.15;100.00;101653.00;5274051;28;20111;-71
2023/04/02 06:21:30;;;;;;;9.07;6.97;;;;;;;6.98;100.00;101675.66;5274855;28;20043;-70
2023/04/02 06:24:04;;;;;;;8.57;6.68;;;;;;;7.03;100.00;101676.22;5270611;28;20031;-70
2023/04/02 06:26:40;;;;;;;7.68;6.88;;;;;;;7.07;100.00;101677.72;5277600;28;20024;-71
2023/04/02 06:29:37;;;;;;;6.78;5.88;;;;;;;7.30;100.00;101693.81;5278385;28;20123;-71
2023/04/02 06:32:10;;;;;;;8.07;7.05;;;;;;;7.03;100.00;101688.41;5279208;28;20059;-70
2023/04/02 06:34:42;;;;;;;8.10;6.35;;;;;;;7.06;100.00;101694.28;5283068;28;20063;-71
2023/04/02 06:37:29;;;;;;;9.57;6.93;;;;;;;7.13;100.00;101694.78;5281065;28;20030;-71
2023/04/02 06:40:02;;;;;;;10.55;7.05;;;;;;;6.93;100.00;101706.34;5283064;28;20041;-71
2023/04/02 06:42:36;;;;;;;;;;;;;;;7.57;100.00;101714.84;5279039;28;20066;-71
2023/04/02 06:45:22;;;;;;;8.13;5.88;;;;;;;7.14;100.00;101721.69;5276311;28;20011;-70
2023/04/02 06:47:58;;;;;;;10.32;6.40;;;;;;;6.97;100.00;101725.22;5276409;28;20654;-71
2023/04/02 06:50:45;;;;;;;7.15;5.88;;;;;;;7.12;100.00;101733.94;5279348;28;20032;-71
2023/04/02 06:53:24;;;;;;;8.15;5.55;;;;;;;6.99;100.00;101731.19;5277725;28;20032;-71
2023/04/02 06:56:12;;;;;;;7.78;5.60;;;;;;;7.09;100.00;101748.00;5278050;28;20021;-71
2023/04/02 06:58:43;;;;;;;7.32;5.53;;;;;;;6.99;100.00;101754.63;5275407;28;20033;-71
2023/04/02 07:01:18;;;;;;;7.32;5.38;;;;;;;6.99;100.00;101754.63;5271706;28;20412;-71
2023/04/02 07:03:50;;;;;;;9.05;4.82;;;;;;;6.98;100.00;101764.22;5255985;28;20035;-71
2023/04/02 07:06:21;;;;;;;7.65;4.70;;;;;;;6.94;100.00;101777.50;5249300;28;20050;-71
2023/04/02 07:08:53;;;;;;;9.57;5.03;;;;;;;6.93;100.00;101773.19;5242161;28;20044;-71
2023/04/02 07:11:25;;;;;;;6.68;4.28;;;;;;;6.85;100.00;101771.00;5243918;28;20135;-71
2023/04/02 07:13:56;;;;;;;5.38;4.13;;;;;;;6.91;100.00;101785.47;5255512;28;20040;-70
2023/04/02 07:16:30;;;;;;;8.25;4.82;;;;;;;7.06;100.00;101801.13;5259293;28;20421;-71
2023/04/02 07:19:03;;;;;;;5.45;4.07;;;;;;;6.95;100.00;101800.84;5254189;28;20040;-71
2023/04/02 07:21:34;;;;;;;8.23;3.97;;;;;;;7.04;100.00;101812.53;5251343;28;20044;-71
2023/04/02 07:24:05;;;;;;;5.50;3.58;;;;;;;7.01;100.00;101807.50;5256617;28;20025;-71
2023/04/02 07:26:37;;;;;;;6.45;3.80;;;;;;;6.94;100.00;101824.41;5237020;28;20115;-71
2023/04/02 07:29:14;;;;;;;6.43;3.58;;;;;;;7.05;100.00;101822.06;5257721;28;20485;-71
2023/04/02 07:31:45;;;;;;;5.90;3.25;;;;;;;6.83;100.00;101838.00;5254093;28;20036;-71
2023/04/02 07:34:16;;;;;;;8.93;3.78;;;;;;;6.72;100.00;101843.75;5253596;28;20083;-71
2023/04/02 07:36:49;;;;;;;4.95;3.05;;;;;;;6.64;100.00;101851.13;5254877;28;20061;-71
2023/04/02 07:39:20;;;;;;;5.13;2.80;;;;;;;6.55;100.00;101841.19;5254241;28;20039;-71
2023/04/02 07:41:54;;;;;;;6.85;2.92;;;;;;;6.58;100.00;101848.84;5251222;28;20033;-71
2023/04/02 07:44:26;;;;;;;5.10;2.55;;;;;;;6.51;100.00;101847.47;5256262;28;20016;-70
2023/04/02 07:46:58;;;;;;;6.70;2.50;;;;;;;6.60;100.00;101854.81;5254636;28;20834;-71
2023/04/02 07:49:29;;;;;;;6.63;2.92;;;;;;;6.56;100.00;101859.34;5257996;28;20028;-70
2023/04/02 07:52:00;;;;;;;7.78;3.13;;;;;;;6.56;100.00;101854.16;5255154;28;20033;-71
2023/04/02 07:54:32;;;;;;;5.60;2.70;;;;;;;6.57;100.00;101865.41;5254401;28;20102;-71
2023/04/02 07:57:03;;;;;;;6.32;3.28;;;;;;;6.53;100.00;101867.31;5254614;28;20040;-71
2023/04/02 07:59:34;;;;;;;4.25;2.50;;;;;;;6.62;100.00;101872.97;5254371;28;20025;-71
2023/04/02 08:02:06;;;;;;;6.13;2.90;;;;;;;6.60;100.00;101867.00;5252516;28;20320;-71
2023/04/02 08:04:37;;;;;;;7.35;2.80;;;;;;;6.76;100.00;101880.91;5258993;28;20036;-71
2023/04/02 08:07:08;;;;;;;4.85;2.53;;;;;;;6.74;100.00;101888.81;5251668;28;20035;-71
2023/04/02 08:09:39;;;;;;;4.10;2.38;;;;;;;6.72;100.00;101895.00;5256385;28;20029;-71
2023/04/02 08:12:12;;;;;;;5.93;2.67;;;;;;;6.74;100.00;101887.94;5249101;28;20025;-70
2023/04/02 08:14:44;;;;;;;6.80;2.67;;;;;;;6.61;100.00;101892.13;5260575;28;20087;-71
2023/04/02 08:17:16;;;;;;;5.32;2.47;;;;;;;6.60;100.00;101882.63;5258456;28;20490;-70
2023/04/02 08:19:47;;;;;;;7.55;3.25;;;;;;;6.77;100.00;101901.66;5259878;28;20043;-71
2023/04/02 08:22:18;;;;;;;3.92;2.15;;;;;;;6.69;100.00;101909.03;5260322;28;20309;-71
2023/04/02 08:24:50;;;;;;;5.13;2.20;;;;;;;6.71;100.00;101919.38;5258207;28;20090;-70
2023/04/02 08:27:25;;;;;;;5.65;2.85;;;;;;;6.75;100.00;101913.94;5260459;28;20055;-71
2023/04/02 08:29:56;;;;;;;5.43;2.25;;;;;;;6.85;100.00;101924.69;5256141;28;20363;-71
2023/04/02 08:32:27;;;;;;;5.03;2.20;;;;;;;6.88;100.00;101927.16;5251180;28;20036;-71
2023/04/02 08:34:59;;;;;;;7.55;2.40;;;;;;;6.99;100.00;101939.63;5255709;28;20043;-71
2023/04/02 08:37:30;;;;;;;6.45;2.47;;;;;;;7.03;100.00;101947.19;5242635;28;20357;-71
2023/04/02 08:40:02;;;;;;;4.68;2.50;;;;;;;6.98;100.00;101946.59;5238601;28;20036;-71
2023/04/02 08:42:43;;;;;;;4.68;2.20;;;;;;;7.11;100.00;101944.19;5262467;28;20828;-71
2023/04/02 08:45:36;;;;;;;4.07;1.90;;;;;;;7.07;100.00;101968.72;5257931;28;20419;-71
2023/04/02 08:48:10;;;;;;;4.15;2.17;;;;;;;7.10;100.00;101962.50;5256342;28;20115;-71
2023/04/02 08:50:42;;;;;;;;;;;;;;;7.67;100.00;101968.16;5255963;28;20060;-71
2023/04/02 08:53:26;;;;;;;5.10;2.20;;;;;;;7.29;100.00;101982.31;5258940;28;20331;-71
2023/04/02 08:56:42;;;;;;;5.32;2.00;;;;;;;7.64;100.00;101981.34;5261511;28;20130;-71
2023/04/02 08:59:37;;;;;;;5.63;2.13;;;;;;;7.40;100.00;101992.19;5250824;28;20036;-71
2023/04/02 09:02:21;;;;;;;5.72;1.98;;;;;;;7.30;100.00;101994.41;5264475;28;20044;-71
2023/04/02 09:04:53;;;;;;;4.45;2.08;;;;;;;7.01;100.00;101993.34;5281138;28;20468;-71
2023/04/02 09:07:25;;;;;;;3.58;1.60;;;;;;;7.06;100.00;102012.19;5276513;28;20036;-71
2023/04/02 09:09:57;;;;;;;4.50;2.05;;;;;;;7.06;100.00;102012.19;5280813;28;20539;-71
2023/04/02 09:12:30;;;;;;;5.10;1.98;;;;;;;7.13;100.00;102017.09;5277879;28;20028;-71
2023/04/02 09:15:10;;;;;;;4.35;1.80;;;;;;;7.27;100.00;102018.06;5279646;28;20032;-71
2023/04/02 09:17:42;;;;;;;4.85;1.70;;;;;;;7.22;100.00;102016.59;5283876;28;20036;-71
2023/04/02 09:20:22;;;;;;;3.22;1.80;;;;;;;7.39;100.00;102023.56;5283859;28;20031;-71
2023/04/02 09:22:55;;;;;;;4.20;2.05;;;;;;;7.24;100.00;102020.81;5277252;28;20497;-71
2023/04/02 09:25:30;;;;;;;3.83;2.00;;;;;;;7.43;100.00;102032.91;5280836;28;20452;-71
2023/04/02 09:28:03;;;;;;;3.95;1.60;;;;;;;7.36;100.00;102044.56;5280501;28;20033;-71
2023/04/02 09:30:59;;;;;;;4.18;2.17;;;;;;;7.64;100.00;102051.75;5274391;28;20472;-71
2023/04/02 09:34:00;;;;;;;3.45;1.88;;;;;;;7.66;100.00;102057.75;5256802;28;20089;-71
2023/04/02 09:36:36;;;;;;;3.15;1.50;;;;;;;7.23;100.00;102057.38;5262378;28;20420;-71
2023/04/02 09:39:27;;;;;;;5.72;1.77;;;;;;;7.49;100.00;102064.69;5275565;28;20028;-71
2023/04/02 09:42:04;;;;;;;3.28;1.42;;;;;;;7.24;100.00;102061.69;5274147;28;20024;-70
2023/04/02 09:44:35;;;;;;;4.38;1.60;;;;;;;7.38;100.00;102069.63;5275760;28;20103;-71
2023/04/02 09:47:24;;;;;;;4.82;1.70;;;;;;;7.53;100.00;102071.41;5270889;28;20028;-71
2023/04/02 09:50:12;;;;;;;6.15;1.88;;;;;;;7.51;100.00;102077.66;5280916;28;20054;-71
2023/04/02 09:52:43;;;;;;;5.25;1.90;;;;;;;7.29;100.00;102081.38;5278360;28;20028;-71
2023/04/02 09:55:15;;;;;;;4.65;2.03;;;;;;;7.37;100.00;102077.53;5275446;28;20400;-71
2023/04/02 09:57:48;;;;;;;5.30;2.17;;;;;;;7.36;100.00;102081.91;5279885;28;20036;-71
2023/04/02 10:00:22;;;;;;;7.47;2.20;;;;;;;7.43;100.00;102093.69;5271160;28;20899;-71
2023/04/02 10:03:05;;;;;;;3.97;1.77;;;;;;;7.56;100.00;102097.34;5251866;28;20072;-71
2023/04/02 10:05:37;;;;;;;4.82;2.22;;;;;;;7.43;100.00;102098.91;5256915;28;20033;-71
2023/04/02 10:08:29;;;;;;;5.68;1.95;;;;;;;7.73;100.00;102111.28;5258438;28;20265;-71
2023/04/02 10:11:06;;;;;;;4.45;1.95;;;;;;;7.45;100.00;102117.06;5237939;28;20039;-71
2023/04/02 10:14:16;;;;;;;4.10;1.60;;;;;;;7.57;100.00;102101.63;5257462;28;20082;-71
2023/04/02 10:16:51;;;;;;;4.68;2.13;;;;;;;7.51;100.00;102112.41;5256195;28;20473;-71
2023/04/02 10:19:25;;;;;;;4.38;2.20;;;;;;;7.41;100.00;102118.16;5254226;28;20033;-71
2023/04/02 10:21:59;;;;;;;3.20;1.73;;;;;;;7.39;100.00;102106.97;5256351;28;20036;-72
2023/04/02 10:24:31;;;;;;;4.93;1.85;;;;;;;7.41;100.00;102131.19;5255484;28;20025;-72
2023/04/02 10:27:08;;;;;;;8.13;2.40;;;;;;;7.41;100.00;102133.81;5234137;28;20485;-72
2023/04/02 10:30:04;;;;;;;3.78;1.70;;;;;;;7.49;100.00;102136.84;5254786;28;20441;-72
2023/04/02 10:32:53;;;;;;;3.83;1.77;;;;;;;7.61;100.00;102132.78;5256397;28;20024;-72
2023/04/02 10:35:49;;;;;;;4.38;1.88;;;;;;;7.70;100.00;102138.38;5251779;28;20087;-72
2023/04/02 10:38:26;;;;;;;2.70;1.55;;;;;;;7.79;100.00;102145.69;5257671;28;20045;-72
2023/04/02 10:41:05;;;;;;;4.47;1.83;;;;;;;7.64;100.00;102156.94;5253470;28;20035;-72
2023/04/02 10:44:04;;;;;;;4.03;1.83;;;;;;;7.78;100.00;102162.28;5249074;28;20840;-72
2023/04/02 10:46:47;;;;;;;3.83;1.65;;;;;;;7.81;100.00;102176.94;5251489;28;20045;-73
2023/04/02 10:49:34;;;;;;;3.95;1.77;;;;;;;7.83;100.00;102175.09;5262034;28;20513;-72
2023/04/02 10:52:20;;;;;;;5.70;2.05;;;;;;;7.86;100.00;102171.47;5256710;28;20024;-73
2023/04/02 10:54:53;;;;;;;3.50;1.85;;;;;;;7.63;100.00;102170.06;5256693;28;20135;-72
2023/04/02 10:57:43;;;;;;;2.05;1.38;;;;;;;7.90;100.00;102155.59;5253141;28;20098;-72
2023/04/02 11:00:23;;;;;;;4.95;1.90;;;;;;;7.96;100.00;102173.53;5246124;28;20024;-72
2023/04/02 11:03:08;;;;;;;5.30;2.55;;;;;;;7.92;100.00;102176.41;5252048;28;20413;-72
2023/04/02 11:05:49;;;;;;;5.60;2.08;;;;;;;7.96;100.00;102183.13;5255053;28;20036;-72
2023/04/02 11:08:27;;;;;;;3.47;1.70;;;;;;;7.95;100.00;102169.22;5253747;28;20455;-72
2023/04/02 11:11:21;;;;;;;5.00;2.63;;;;;;;8.37;100.00;102193.13;5247942;28;20587;-72
2023/04/02 11:14:04;;;;;;;6.22;2.55;;;;;;;8.49;100.00;102193.34;5257438;28;20543;-72
2023/04/02 11:16:36;;;;;;;3.95;2.10;;;;;;;8.24;100.00;102204.22;5258385;28;20044;-72
2023/04/02 11:19:13;;;;;;;4.47;1.73;;;;;;;8.29;100.00;102212.66;5261896;28;20028;-73
2023/04/02 11:22:21;;;;;;;5.10;2.50;;;;;;;8.50;100.00;102221.16;5252903;28;20313;-72
2023/04/02 11:24:55;;;;;;;4.47;1.90;;;;;;;8.10;100.00;102216.31;5230475;28;20044;-72
2023/04/02 11:27:27;;;;;;;3.90;2.05;;;;;;;8.14;100.00;102212.63;5253776;28;20028;-72
2023/04/02 11:30:05;;;;;;;6.60;1.60;;;;;;;8.38;100.00;102219.22;5255836;28;20021;-72
2023/04/02 11:32:41;;;;;;;4.72;1.83;;;;;;;8.45;100.00;102224.94;5256680;28;20044;-72
2023/04/02 11:35:25;;;;;;;3.55;2.13;;;;;;;8.65;100.00;102232.53;5236162;28;20032;-73
2023/04/02 11:37:59;;;;;;;4.38;1.83;;;;;;;8.53;100.00;102228.81;5254031;28;20094;-72
2023/04/02 11:40:40;;;;;;;4.55;1.65;;;;;;;8.75;100.00;102238.97;5250954;28;20095;-72
2023/04/02 11:43:34;;;;;;;5.10;1.95;;;;;;;8.83;100.00;102230.69;5251973;28;20041;-72
2023/04/02 11:46:38;;;;;;;3.67;1.88;;;;;;;8.90;100.00;102233.78;5257271;28;20615;-72
2023/04/02 11:50:02;;;;;;;3.70;1.90;;;;;;;8.91;100.00;102227.66;5257468;28;20131;-72
2023/04/02 11:52:37;;;;;;;4.05;1.88;;;;;;;8.71;100.00;102242.66;5189186;28;20807;-73
2023/04/02 11:55:26;;;;;;;4.60;1.98;;;;;;;8.76;100.00;102242.41;5256260;28;20122;-73
2023/04/02 11:58:23;;;;;;;3.65;1.80;;;;;;;8.70;100.00;102256.63;5254528;28;20035;-73
2023/04/02 12:01:18;;;;;;;3.53;1.83;;;;;;;8.80;100.00;102256.16;5253992;28;20033;-72
2023/04/02 12:04:14;;;;;;;3.92;1.60;;;;;;;8.97;100.00;102267.34;5252764;28;20052;-73
2023/04/02 12:06:58;;;;;;;3.92;1.38;;;;;;;8.83;100.00;102274.28;5255802;28;20044;-73
2023/04/02 12:09:43;;;;;;;3.25;1.77;;;;;;;8.83;100.00;102280.34;5255160;28;20040;-72
2023/04/02 12:12:24;;;;;;;4.38;1.73;;;;;;;8.85;100.00;102278.47;5253144;28;20107;-72
2023/04/02 12:14:57;;;;;;;4.05;1.75;;;;;;;8.68;100.00;102297.69;5255442;28;20113;-73
2023/04/02 12:17:47;;;;;;;3.33;1.45;;;;;;;8.91;100.00;102286.00;5258193;28;20044;-73
2023/04/02 12:20:22;;;;;;;3.83;1.75;;;;;;;8.63;100.00;102289.25;5251941;28;20032;-72
2023/04/02 12:22:55;;;;;;;7.35;2.13;;;;;;;8.63;100.00;102297.06;5254968;28;20123;-72
2023/04/02 12:25:31;;;;;;;4.78;2.00;;;;;;;8.84;100.00;102295.09;5250691;28;20861;-73